createdAt,value
2024-05-09T00:05:23.687Z,26.5
2024-05-09T00:12:18.537Z,29.8
2024-05-09T00:19:20.505Z,29.3
2024-05-09T00:26:21.249Z,31.2
2024-05-09T00:33:48.353Z,28.3
2024-05-09T00:41:32.442Z,33.8
2024-05-09T00:48:33.827Z,29.1
2024-05-09T00:55:36.053Z,29.4
2024-05-09T01:02:40.605Z,32.9
2024-05-09T01:09:47.106Z,29.7
2024-05-09T01:16:49.405Z,34.1
2024-05-09T01:23:59.067Z,30.7
2024-05-09T01:31:00.347Z,34.3
2024-05-09T01:38:02.194Z,34.4
2024-05-09T01:45:09.564Z,32.3
2024-05-09T01:52:20.086Z,33.8
2024-05-09T01:59:14.604Z,31.1
2024-05-09T02:06:11.260Z,36.9
2024-05-09T02:13:10.400Z,34.9
2024-05-09T02:20:33.034Z,32.2
2024-05-09T02:27:35.226Z,38
2024-05-09T02:34:42.287Z,34
2024-05-09T02:41:50.234Z,33.6
2024-05-09T02:48:55.949Z,29.9
2024-05-09T02:55:55.637Z,35.6
2024-05-09T03:03:07.027Z,32.8
2024-05-09T03:10:17.894Z,32.4
2024-05-09T03:18:02.291Z,31
2024-05-09T03:25:03.902Z,37.4
2024-05-09T03:32:09.134Z,32.4
2024-05-09T03:39:10.419Z,34.8
2024-05-09T03:46:20.221Z,32.6
2024-05-09T03:54:26.452Z,32.6
2024-05-09T04:02:27.566Z,36.2
2024-05-09T04:10:45.088Z,35.9
2024-05-09T04:18:07.655Z,37.5
2024-05-09T04:25:55.615Z,34.7
2024-05-09T04:32:42.949Z,30.1
2024-05-09T04:39:47.371Z,29.8
2024-05-09T04:46:55.702Z,31.4
2024-05-09T04:54:02.404Z,33
2024-05-09T05:01:46.169Z,32.1
2024-05-09T05:08:57.295Z,29.1
2024-05-09T05:15:53.002Z,32.8
2024-05-09T05:22:50.971Z,27.4
2024-05-09T05:29:51.560Z,30.6
2024-05-09T05:36:45.146Z,28.5
2024-05-09T05:44:02.470Z,29.7
2024-05-09T05:51:18.950Z,32
2024-05-09T05:58:11.100Z,34.6
2024-05-09T06:05:02.069Z,33.9
2024-05-09T06:12:14.858Z,35.2
2024-05-09T06:19:27.414Z,30.9
2024-05-09T06:26:44.382Z,35.4
2024-05-09T06:33:51.970Z,46.9
2024-05-09T06:41:02.259Z,48.7
2024-05-09T06:48:00.651Z,56.2
2024-05-09T06:55:02.347Z,54
2024-05-09T07:01:58.751Z,53.7
2024-05-09T07:09:16.546Z,53.9
2024-05-09T07:16:04.684Z,54.3
2024-05-09T07:23:07.894Z,53.8
2024-05-09T07:32:16.112Z,57.2
2024-05-09T07:39:18.102Z,54.3
2024-05-09T07:51:31.587Z,55.9
2024-05-09T08:00:17.234Z,57.2
2024-05-09T08:07:17.650Z,55
2024-05-09T08:14:19.628Z,56
2024-05-09T08:21:20.145Z,52.8
2024-05-09T08:28:13.851Z,49.1
2024-05-09T08:35:21.100Z,47.3
2024-05-09T08:42:45.114Z,44.2
2024-05-09T08:49:53.473Z,42.9
2024-05-09T08:56:41.497Z,37.2
2024-05-09T09:03:37.090Z,36.9
2024-05-09T09:10:45.758Z,34.4
2024-05-09T09:17:47.693Z,32.2
2024-05-09T09:24:42.375Z,31.6
2024-05-09T09:31:39.153Z,29.6
2024-05-09T09:38:41.162Z,27.1
2024-05-09T09:45:58.780Z,23.7
2024-05-09T09:52:58.110Z,18
2024-05-09T10:00:09.346Z,9.2
2024-05-09T10:07:03.960Z,13.6
2024-05-09T10:13:41.267Z,14.5
2024-05-09T10:20:33.780Z,15.5
2024-05-09T10:27:18.820Z,13.9
2024-05-09T10:34:00.715Z,13.3
2024-05-09T10:41:00.733Z,10.5
2024-05-09T10:47:40.596Z,10.2
2024-05-09T10:54:48.788Z,9.2
2024-05-09T11:01:25.570Z,6.8
2024-05-09T11:08:34.447Z,6.8
2024-05-09T11:15:29.005Z,5.7
2024-05-09T11:22:22.798Z,5.2
2024-05-09T11:29:19.541Z,5.1
2024-05-09T11:36:21.240Z,4.4
2024-05-09T11:43:37.122Z,4.3
2024-05-09T11:50:54.398Z,4.8
2024-05-09T11:58:01.105Z,4.4
2024-05-09T12:05:03.896Z,4.3
2024-05-09T12:12:22.771Z,3.9
2024-05-09T12:19:47.654Z,3.8
2024-05-09T12:26:59.490Z,3.2
2024-05-09T12:35:14.432Z,3.2
2024-05-09T12:42:22.630Z,2.9
2024-05-09T12:49:45.671Z,2.8
2024-05-09T12:56:49.015Z,2.7
2024-05-09T13:03:51.024Z,2.7
2024-05-09T13:10:59.731Z,2.8
2024-05-09T13:18:02.781Z,2.8
2024-05-09T13:25:09.024Z,2.4
2024-05-09T13:32:14.548Z,2.5
2024-05-09T13:39:14.557Z,2.7
2024-05-09T13:46:14.747Z,2.8
2024-05-09T13:53:16.397Z,2.4
2024-05-09T14:00:42.067Z,2.8
2024-05-09T14:08:00.030Z,2.7
2024-05-09T14:15:12.359Z,2.6
2024-05-09T14:22:22.985Z,2.7
2024-05-09T14:29:13.931Z,2.6
2024-05-09T14:36:19.795Z,2.6
2024-05-09T14:43:22.875Z,4
2024-05-09T14:50:40.385Z,3.9
2024-05-09T14:57:43.245Z,3.8
2024-05-09T15:04:45.209Z,4.1
2024-05-09T15:12:00.963Z,3.8
2024-05-09T15:19:02.339Z,3.4
2024-05-09T15:26:02.193Z,3.4
2024-05-09T15:32:58.853Z,3
2024-05-09T15:39:46.213Z,4.3
2024-05-09T15:46:45.826Z,4.6
2024-05-09T15:53:38.193Z,4.6
2024-05-09T16:01:24.581Z,5
2024-05-09T16:08:17.726Z,5.6
2024-05-09T16:15:28.341Z,5.3
2024-05-09T16:22:28.576Z,5.6
2024-05-09T16:29:29.506Z,5.5
2024-05-09T16:36:19.689Z,4.2
2024-05-09T16:43:17.558Z,3.5
2024-05-09T16:50:10.688Z,4.6
2024-05-09T16:57:05.462Z,5.6
2024-05-09T17:04:05.683Z,5
2024-05-09T17:11:18.214Z,5.8
2024-05-09T17:18:25.154Z,6.5
2024-05-09T17:25:40.437Z,7.1
2024-05-09T17:32:29.942Z,6.9
2024-05-09T17:39:23.460Z,6.3
2024-05-09T17:46:24.691Z,7.7
2024-05-09T17:53:23.001Z,6.6
2024-05-09T18:00:45.784Z,6.4
2024-05-09T18:07:52.808Z,6.8
2024-05-09T18:14:53.511Z,7.8
2024-05-09T18:21:51.242Z,9.1
2024-05-09T18:28:53.891Z,11
2024-05-09T18:35:56.118Z,11.5
2024-05-09T18:43:17.185Z,12.7
2024-05-09T18:50:24.537Z,13.2
2024-05-09T18:57:31.351Z,13.5
2024-05-09T19:04:26.038Z,15.9
2024-05-09T19:11:26.788Z,15.8
2024-05-09T19:18:31.192Z,15.7
2024-05-09T19:25:31.390Z,16.1
2024-05-09T19:32:26.111Z,16.6
2024-05-09T19:39:20.407Z,20.1
2024-05-09T19:46:18.495Z,18.4
2024-05-09T19:53:16.334Z,18.7
2024-05-09T20:00:14.939Z,19.4
2024-05-09T20:07:15.822Z,22.3
2024-05-09T20:14:20.512Z,21.9
2024-05-09T20:21:31.178Z,23.4
2024-05-09T20:28:35.784Z,26.9
2024-05-09T20:35:44.391Z,26.5
2024-05-09T20:42:53.604Z,25.9
2024-05-09T20:49:56.747Z,25.7
2024-05-09T20:56:50.117Z,24.2
2024-05-09T21:04:13.584Z,24.9
2024-05-09T21:11:14.314Z,24.3
2024-05-09T21:18:15.813Z,24.7
2024-05-09T21:25:12.736Z,25.8
2024-05-09T21:32:09.231Z,25.2
2024-05-09T21:39:23.607Z,26.9
2024-05-09T21:46:29.288Z,25.1
2024-05-09T21:53:21.126Z,26.2
2024-05-09T22:00:24.956Z,25.3
2024-05-09T22:07:33.981Z,25.8
2024-05-09T22:14:30.033Z,25.7
2024-05-09T22:21:32.947Z,25.5
2024-05-09T22:28:27.752Z,23.8
2024-05-09T22:35:34.113Z,23.5
2024-05-09T22:42:28.251Z,24.7
2024-05-09T22:49:29.290Z,23.9
2024-05-09T22:56:26.691Z,24.2
2024-05-09T23:03:25.935Z,23.3
2024-05-09T23:10:35.411Z,24.3
2024-05-09T23:17:30.401Z,23.5
2024-05-09T23:24:23.840Z,24
2024-05-09T23:31:34.723Z,26.8
2024-05-09T23:38:39.444Z,24.8
2024-05-09T23:45:34.681Z,27.1
2024-05-09T23:52:41.417Z,26.7
2024-05-09T23:59:37.453Z,23.5
